Time;durP1;ratioP1;P1;durP2;ratioP2;P2;SDS_P1;SDS_P2;PMS_P1;PMS_P2;Temp;Humidity;BMP_temperature;BMP_pressure;BME280_temperature;BME280_humidity;BME280_pressure;Samples;Min_cycle;Max_cycle;Signal;HPM_P1;HPM_P2
2021/11/13 00:07:51;;;;;;;;;;;9.40;69.70;;;;;;20895889;28;76909;-73
2021/11/13 00:17:53;;;;;;;;;;;9.20;70.10;;;;;;20913645;28;76882;-73
2021/11/13 00:27:55;;;;;;;;;;;9.00;70.40;;;;;;20915115;27;76905;-71
2021/11/13 00:37:56;;;;;;;;;;;8.90;70.50;;;;;;20995434;27;76006;-72
2021/11/13 00:47:58;;;;;;;;;;;8.80;70.90;;;;;;20974307;27;76915;-71
2021/11/13 00:58:00;;;;;;;;;;;8.60;71.10;;;;;;20975312;27;76708;-71
2021/11/13 01:08:02;;;;;;;;;;;8.60;71.30;;;;;;20973967;27;76097;-72
2021/11/13 01:18:04;;;;;;;;;;;8.40;71.40;;;;;;20973801;27;75927;-70
2021/11/13 01:28:05;;;;;;;;;;;8.40;71.80;;;;;;20991315;27;75709;-70
2021/11/13 01:38:07;;;;;;;;;;;8.40;72.00;;;;;;20990890;27;75573;-69
2021/11/13 01:48:09;;;;;;;;;;;8.20;72.30;;;;;;20972956;27;76913;-71
2021/11/13 01:58:12;;;;;;;;;;;8.20;72.40;;;;;;20984234;27;76829;-70
2021/11/13 02:08:16;;;;;;;;;;;8.20;72.40;;;;;;21004400;27;76971;-72
2021/11/13 02:18:18;;;;;;;;;;;8.10;72.40;;;;;;21003732;27;76973;-73
2021/11/13 02:28:22;;;;;;;;;;;7.80;72.60;;;;;;21002034;27;76694;-71
2021/11/13 02:38:32;;;;;;;;;;;7.70;72.80;;;;;;21001377;27;77090;-76
2021/11/13 02:48:40;;;;;;;;;;;7.50;72.90;;;;;;20983500;27;75923;-73
2021/11/13 02:58:49;;;;;;;;;;;7.40;73.30;;;;;;20984499;27;76876;-74
2021/11/13 03:08:54;;;;;;;;;;;7.30;73.40;;;;;;20999790;27;76798;-76
2021/11/13 03:18:57;;;;;;;;;;;7.20;73.70;;;;;;21000040;27;76777;-74
2021/11/13 03:29:09;;;;;;;;;;;7.10;73.70;;;;;;20981216;27;75856;-74
2021/11/13 03:39:13;;;;;;;;;;;6.90;73.80;;;;;;20998604;27;75812;-71
2021/11/13 03:49:16;;;;;;;;;;;6.80;74.20;;;;;;20980031;27;75733;-75
2021/11/13 03:59:22;;;;;;;;;;;6.80;74.20;;;;;;20978721;27;75461;-70
2021/11/13 04:09:44;;;;;;;;;;;6.70;74.00;;;;;;20981658;27;77181;-69
2021/11/13 04:20:06;;;;;;;;;;;6.60;74.40;;;;;;20979575;27;77081;-69
2021/11/13 04:30:25;;;;;;;;;;;6.50;74.60;;;;;;20994469;27;76980;-71
2021/11/13 04:40:47;;;;;;;;;;;6.50;74.50;;;;;;20977922;27;74558;-70
2021/11/13 04:50:58;;;;;;;;;;;6.50;74.60;;;;;;20992492;27;75728;-71
2021/11/13 05:01:03;;;;;;;;;;;6.40;74.60;;;;;;20992212;27;74648;-72
2021/11/13 05:11:07;;;;;;;;;;;6.40;74.60;;;;;;20973600;27;75653;-71
2021/11/13 05:21:10;;;;;;;;;;;6.40;74.70;;;;;;20990980;27;76048;-70
2021/11/13 05:31:14;;;;;;;;;;;6.20;74.60;;;;;;20989795;27;75920;-71
2021/11/13 05:41:16;;;;;;;;;;;6.00;74.80;;;;;;20970697;27;75847;-70
2021/11/13 05:51:19;;;;;;;;;;;6.00;75.00;;;;;;20971147;27;75850;-72
2021/11/13 06:01:22;;;;;;;;;;;5.80;75.00;;;;;;20970521;27;75669;-72
2021/11/13 06:11:24;;;;;;;;;;;5.80;75.50;;;;;;20988257;27;75412;-75
2021/11/13 06:21:27;;;;;;;;;;;5.80;75.30;;;;;;20987497;27;74576;-74
2021/11/13 06:31:30;;;;;;;;;;;5.90;75.60;;;;;;20970294;27;74596;-73
2021/11/13 06:41:32;;;;;;;;;;;5.80;75.70;;;;;;20994846;27;76847;-76
2021/11/13 06:51:34;;;;;;;;;;;5.70;75.60;;;;;;21000754;27;75775;-73
2021/11/13 07:01:36;;;;;;;;;;;5.70;75.80;;;;;;20999921;27;75715;-73
2021/11/13 07:11:37;;;;;;;;;;;5.60;75.70;;;;;;20999746;27;76145;-74
2021/11/13 07:21:47;;;;;;;;;;;5.60;75.70;;;;;;20982610;27;74628;-69
2021/11/13 07:31:48;;;;;;;;;;;5.70;75.90;;;;;;20997780;27;75690;-69
2021/11/13 07:41:50;;;;;;;;;;;5.80;75.30;;;;;;20997204;27;75705;-67
2021/11/13 07:51:52;;;;;;;;;;;6.10;74.80;;;;;;20997188;27;75298;-69
2021/11/13 08:01:54;;;;;;;;;;;6.40;74.30;;;;;;20978867;27;75496;-72
2021/11/13 08:11:56;;;;;;;;;;;6.70;73.10;;;;;;20978180;27;76060;-70
2021/11/13 08:21:58;;;;;;;;;;;7.00;72.60;;;;;;20977685;27;75663;-68
2021/11/13 08:32:02;;;;;;;;;;;7.40;71.30;;;;;;20994315;27;77134;-69
2021/11/13 08:42:12;;;;;;;;;;;7.60;70.90;;;;;;20992130;27;75757;-69
2021/11/13 08:52:16;;;;;;;;;;;8.10;70.10;;;;;;20974926;27;75980;-68
2021/11/13 09:02:23;;;;;;;;;;;8.60;68.70;;;;;;20991640;27;76125;-66
2021/11/13 09:12:27;;;;;;;;;;;9.30;67.70;;;;;;20988844;27;76077;-67
2021/11/13 09:22:28;;;;;;;;;;;9.90;66.20;;;;;;20991081;27;75749;-67
2021/11/13 09:32:30;;;;;;;;;;;10.40;64.70;;;;;;20988879;27;75716;-64
2021/11/13 09:42:32;;;;;;;;;;;10.90;63.80;;;;;;20989761;27;75814;-64
2021/11/13 09:52:35;;;;;;;;;;;11.40;62.70;;;;;;20967970;27;75562;-66
2021/11/13 10:02:38;;;;;;;;;;;12.10;61.00;;;;;;20984807;27;75823;-69
2021/11/13 10:12:41;;;;;;;;;;;12.80;59.50;;;;;;20966387;27;75043;-64
2021/11/13 10:22:44;;;;;;;;;;;25.00;36.10;;;;;;21001884;27;76640;-69
2021/11/13 10:32:55;;;;;;;;;;;29.70;27.90;;;;;;21001748;27;75839;-71
2021/11/13 10:43:02;;;;;;;;;;;32.40;25.20;;;;;;20983323;27;77143;-69
2021/11/13 10:53:08;;;;;;;;;;;33.90;23.80;;;;;;21000620;27;76806;-70
2021/11/13 11:03:11;;;;;;;;;;;34.50;23.50;;;;;;21000914;27;76129;-71
2021/11/13 11:13:12;;;;;;;;;;;35.80;22.20;;;;;;21000110;27;76907;-70
2021/11/13 11:23:16;;;;;;;;;;;37.10;22.00;;;;;;20998461;27;76539;-70
2021/11/13 11:33:36;;;;;;;;;;;38.40;19.70;;;;;;20998344;27;76775;-70
2021/11/13 11:43:38;;;;;;;;;;;37.60;20.80;;;;;;20997162;27;75623;-69
2021/11/13 11:53:43;;;;;;;;;;;36.40;21.10;;;;;;20996979;27;75121;-67
2021/11/13 12:03:44;;;;;;;;;;;36.20;21.70;;;;;;20976485;27;76779;-69
2021/11/13 12:13:47;;;;;;;;;;;39.90;18.30;;;;;;20995199;27;76919;-71
2021/11/13 12:23:50;;;;;;;;;;;37.00;21.00;;;;;;20975409;27;75721;-71
2021/11/13 12:33:54;;;;;;;;;;;33.80;22.30;;;;;;20974861;27;75842;-69
2021/11/13 12:43:58;;;;;;;;;;;29.30;27.00;;;;;;20987480;27;76812;-71
2021/11/13 12:53:59;;;;;;;;;;;27.00;30.30;;;;;;20990072;27;74679;-68
2021/11/13 13:04:10;;;;;;;;;;;30.40;26.20;;;;;;20974154;27;77286;-68
2021/11/13 13:14:12;;;;;;;;;;;27.50;28.80;;;;;;20990692;27;74534;-69
2021/11/13 13:24:15;;;;;;;;;;;28.40;26.90;;;;;;20990388;27;75756;-70
2021/11/13 13:34:17;;;;;;;;;;;29.00;27.50;;;;;;20988765;27;77038;-69
2021/11/13 13:44:21;;;;;;;;;;;25.90;30.40;;;;;;20990579;27;75766;-70
2021/11/13 13:54:26;;;;;;;;;;;30.40;26.10;;;;;;21001418;27;76106;-71
2021/11/13 14:04:34;;;;;;;;;;;31.20;25.30;;;;;;20986963;27;75764;-71
2021/11/13 14:14:36;;;;;;;;;;;33.60;23.00;;;;;;20999240;27;75924;-62
2021/11/13 14:24:40;;;;;;;;;;;35.60;20.20;;;;;;20993804;27;75711;-63
2021/11/13 14:34:43;;;;;;;;;;;27.50;25.70;;;;;;20994311;27;76510;-62
2021/11/13 14:44:50;;;;;;;;;;;23.10;34.00;;;;;;20986355;27;76435;-61
2021/11/13 14:54:54;;;;;;;;;;;21.20;36.10;;;;;;20995186;27;74953;-62
2021/11/13 15:04:58;;;;;;;;;;;20.40;36.80;;;;;;20991830;27;76622;-61
2021/11/13 15:15:00;;;;;;;;;;;20.00;37.60;;;;;;20995576;27;76662;-62
2021/11/13 15:25:17;;;;;;;;;;;19.60;38.70;;;;;;20994633;27;75550;-60
2021/11/13 15:35:20;;;;;;;;;;;19.20;38.40;;;;;;20951150;27;76920;-62
2021/11/13 15:45:24;;;;;;;;;;;18.80;40.00;;;;;;20930106;27;76837;-63
2021/11/13 15:55:27;;;;;;;;;;;18.40;41.10;;;;;;20935463;27;75689;-65
2021/11/13 16:05:34;;;;;;;;;;;17.90;42.30;;;;;;20911954;27;75158;-66
2021/11/13 16:15:37;;;;;;;;;;;17.60;43.30;;;;;;20906895;27;75574;-64
2021/11/13 16:25:39;;;;;;;;;;;17.20;43.50;;;;;;20902638;28;75009;-64
2021/11/13 16:35:41;;;;;;;;;;;16.80;45.20;;;;;;20919456;27;76061;-65
2021/11/13 16:45:45;;;;;;;;;;;16.40;46.70;;;;;;20907961;28;76706;-67
2021/11/13 16:55:48;;;;;;;;;;;16.00;47.90;;;;;;20907190;28;76670;-65
2021/11/13 17:05:51;;;;;;;;;;;15.60;49.50;;;;;;20903526;28;76831;-65
2021/11/13 17:15:52;;;;;;;;;;;15.10;50.30;;;;;;20906340;27;74567;-65
2021/11/13 17:25:54;;;;;;;;;;;14.70;51.90;;;;;;20904924;28;76485;-64
2021/11/13 17:35:56;;;;;;;;;;;14.30;52.90;;;;;;20906064;27;75936;-66
2021/11/13 17:45:58;;;;;;;;;;;14.10;53.70;;;;;;20905433;28;76784;-67
2021/11/13 17:55:59;;;;;;;;;;;13.90;54.30;;;;;;20905126;28;77002;-66
2021/11/13 18:06:02;;;;;;;;;;;13.60;55.40;;;;;;20904833;28;76077;-64
2021/11/13 18:16:04;;;;;;;;;;;13.40;56.00;;;;;;20886358;28;76783;-65
2021/11/13 18:26:07;;;;;;;;;;;13.30;56.70;;;;;;20903597;27;74731;-68
2021/11/13 18:36:08;;;;;;;;;;;13.10;57.30;;;;;;20974248;27;76935;-65
2021/11/13 18:46:09;;;;;;;;;;;12.80;58.30;;;;;;21001433;27;75822;-66
2021/11/13 18:56:14;;;;;;;;;;;12.70;59.00;;;;;;21000749;27;75706;-66
2021/11/13 19:06:15;;;;;;;;;;;12.60;59.50;;;;;;20981878;27;76804;-69
2021/11/13 19:16:20;;;;;;;;;;;12.70;58.30;;;;;;20981810;27;76184;-68
2021/11/13 19:26:22;;;;;;;;;;;13.00;56.90;;;;;;20999017;27;76892;-67
2021/11/13 19:36:24;;;;;;;;;;;12.90;56.70;;;;;;20996829;27;74615;-66
2021/11/13 19:46:27;;;;;;;;;;;12.90;56.30;;;;;;20984548;27;75780;-71
2021/11/13 19:56:29;;;;;;;;;;;12.90;56.20;;;;;;20976043;27;74661;-74
2021/11/13 20:06:31;;;;;;;;;;;12.80;56.70;;;;;;20993617;27;76878;-72
2021/11/13 20:16:32;;;;;;;;;;;12.70;56.80;;;;;;20971750;27;75854;-74
2021/11/13 20:26:34;;;;;;;;;;;12.60;56.90;;;;;;20988010;27;76775;-72
2021/11/13 20:36:39;;;;;;;;;;;12.60;56.80;;;;;;20889094;28;76079;-75
2021/11/13 20:46:42;;;;;;;;;;;12.40;57.30;;;;;;20909593;27;75781;-72
2021/11/13 20:56:43;;;;;;;;;;;12.40;57.70;;;;;;20907119;27;76886;-74
2021/11/13 21:06:45;;;;;;;;;;;12.10;58.60;;;;;;20890849;28;75825;-72
2021/11/13 21:16:48;;;;;;;;;;;11.90;59.10;;;;;;20906124;27;75904;-72
2021/11/13 21:26:53;;;;;;;;;;;12.00;58.90;;;;;;20914050;27;95784;-71
2021/11/13 21:36:54;;;;;;;;;;;11.90;59.20;;;;;;20991813;27;75713;-71
2021/11/13 21:47:06;;;;;;;;;;;11.90;59.40;;;;;;20975201;27;76613;-71
2021/11/13 21:57:08;;;;;;;;;;;11.80;59.70;;;;;;20991525;27;75714;-75
2021/11/13 22:07:12;;;;;;;;;;;11.70;60.00;;;;;;20988124;27;74830;-73
2021/11/13 22:17:14;;;;;;;;;;;11.60;60.20;;;;;;21004048;27;76618;-71
2021/11/13 22:27:16;;;;;;;;;;;11.40;60.70;;;;;;20985726;27;77388;-76
2021/11/13 22:37:17;;;;;;;;;;;11.30;60.70;;;;;;20985709;27;74490;-75
2021/11/13 22:47:20;;;;;;;;;;;11.00;61.20;;;;;;21002798;27;75896;-73
2021/11/13 22:57:23;;;;;;;;;;;10.70;61.90;;;;;;21002618;27;77003;-73
2021/11/13 23:07:25;;;;;;;;;;;10.40;62.90;;;;;;21000442;27;75609;-73
2021/11/13 23:17:27;;;;;;;;;;;10.10;63.50;;;;;;20983079;27;76887;-73
2021/11/13 23:27:28;;;;;;;;;;;9.80;63.90;;;;;;20998249;27;75951;-70
2021/11/13 23:37:30;;;;;;;;;;;9.70;65.00;;;;;;20980500;27;75775;-73
2021/11/13 23:47:31;;;;;;;;;;;9.40;65.20;;;;;;20997684;27;76531;-71
2021/11/13 23:57:33;;;;;;;;;;;9.40;65.50;;;;;;20978978;27;75412;-71
